createdAt,value
2022-11-03T00:00:42.992Z,1009
2022-11-03T00:01:58.303Z,1009
2022-11-03T00:03:14.602Z,1009
2022-11-03T00:04:29.920Z,1009.1
2022-11-03T00:05:45.219Z,1009.1
2022-11-03T00:07:01.520Z,1009.1
2022-11-03T00:08:17.821Z,1009.1
2022-11-03T00:09:34.114Z,1009.2
2022-11-03T00:10:50.404Z,1009.1
2022-11-03T00:12:06.694Z,1009.1
2022-11-03T00:13:22.983Z,1009.1
2022-11-03T00:14:39.287Z,1009.1
2022-11-03T00:15:55.589Z,1009.1
2022-11-03T00:17:11.875Z,1009.1
2022-11-03T00:18:28.179Z,1009.1
2022-11-03T00:19:44.458Z,1009.1
2022-11-03T00:21:00.754Z,1009
2022-11-03T00:22:16.066Z,1009
2022-11-03T00:23:32.373Z,1009
2022-11-03T00:24:47.674Z,1009
2022-11-03T00:26:03.963Z,1009
2022-11-03T00:27:20.268Z,1009
2022-11-03T00:28:36.571Z,1009
2022-11-03T00:29:52.854Z,1009
2022-11-03T00:31:08.163Z,1008.9
2022-11-03T00:32:23.489Z,1008.9
2022-11-03T00:33:39.770Z,1008.9
2022-11-03T00:34:56.072Z,1008.9
2022-11-03T00:36:11.390Z,1008.8
2022-11-03T00:37:26.688Z,1008.9
2022-11-03T00:38:42.990Z,1008.8
2022-11-03T00:39:59.275Z,1008.8
2022-11-03T00:41:15.570Z,1008.8
2022-11-03T00:42:31.869Z,1008.8
2022-11-03T00:43:48.158Z,1008.9
2022-11-03T00:45:04.459Z,1008.8
2022-11-03T00:46:20.760Z,1008.8
2022-11-03T00:47:37.044Z,1008.8
2022-11-03T00:48:53.338Z,1008.9
2022-11-03T00:50:09.624Z,1008.8
2022-11-03T00:51:25.924Z,1008.8
2022-11-03T00:52:42.229Z,1008.9
2022-11-03T00:53:57.536Z,1008.9
2022-11-03T00:55:13.828Z,1008.9
2022-11-03T00:56:30.000Z,1008.9
2022-11-03T00:57:46.414Z,1008.9
2022-11-03T00:59:02.708Z,1008.9
2022-11-03T01:00:18.991Z,1008.9
2022-11-03T01:01:35.299Z,1008.9
2022-11-03T01:02:50.598Z,1008.9
2022-11-03T01:04:05.919Z,1008.9
2022-11-03T01:05:21.235Z,1008.9
2022-11-03T01:06:36.536Z,1008.9
2022-11-03T01:07:52.834Z,1008.8
2022-11-03T01:09:09.139Z,1008.9
2022-11-03T01:10:25.419Z,1008.9
2022-11-03T01:11:41.712Z,1008.8
2022-11-03T01:12:58.006Z,1008.8
2022-11-03T01:14:14.296Z,1008.8
2022-11-03T01:15:30.594Z,1008.8
2022-11-03T01:16:46.889Z,1008.8
2022-11-03T01:18:03.190Z,1008.8
2022-11-03T01:19:19.488Z,1008.7
2022-11-03T01:20:35.780Z,1008.7
2022-11-03T01:21:52.079Z,1008.7
2022-11-03T01:23:07.376Z,1008.8
2022-11-03T01:24:23.676Z,1008.8
2022-11-03T01:25:39.978Z,1008.8
2022-11-03T01:26:56.256Z,1008.8
2022-11-03T01:28:12.541Z,1008.7
2022-11-03T01:29:28.830Z,1008.7
2022-11-03T01:30:45.124Z,1008.7
2022-11-03T01:32:00.441Z,1008.7
2022-11-03T01:33:15.767Z,1008.7
2022-11-03T01:34:32.050Z,1008.7
2022-11-03T01:35:48.353Z,1008.6
2022-11-03T01:37:04.651Z,1008.6
2022-11-03T01:38:20.925Z,1008.6
2022-11-03T01:39:37.238Z,1008.6
2022-11-03T01:40:53.532Z,1008.5
2022-11-03T01:42:09.807Z,1008.5
2022-11-03T01:43:26.117Z,1008.6
2022-11-03T01:44:42.402Z,1008.5
2022-11-03T01:45:58.695Z,1008.6
2022-11-03T01:47:15.014Z,1008.5
2022-11-03T01:48:31.278Z,1008.5
2022-11-03T01:49:46.592Z,1008.5
2022-11-03T01:51:02.896Z,1008.5
2022-11-03T01:52:19.192Z,1008.5
2022-11-03T01:53:35.480Z,1008.4
2022-11-03T01:54:51.776Z,1008.4
2022-11-03T01:56:08.066Z,1008.4
2022-11-03T01:57:24.369Z,1008.4
2022-11-03T01:58:39.678Z,1008.4
2022-11-03T01:59:54.979Z,1008.4
2022-11-03T02:01:10.300Z,1008.3
2022-11-03T02:02:25.608Z,1008.3
2022-11-03T02:03:41.922Z,1008.3
2022-11-03T02:04:58.209Z,1008.2
2022-11-03T02:06:13.523Z,1008.2
2022-11-03T02:07:28.836Z,1008.2
2022-11-03T02:08:45.125Z,1008.2
2022-11-03T02:10:01.424Z,1008.2
2022-11-03T02:11:17.714Z,1008.1
2022-11-03T02:12:34.017Z,1008.1
2022-11-03T02:13:50.316Z,1008
2022-11-03T02:15:06.600Z,1008
2022-11-03T02:16:22.885Z,1007.9
2022-11-03T02:17:39.189Z,1007.9
2022-11-03T02:18:55.484Z,1007.9
2022-11-03T02:20:11.770Z,1007.9
2022-11-03T02:21:28.065Z,1007.9
2022-11-03T02:22:44.360Z,1007.9
2022-11-03T02:23:59.678Z,1007.9
2022-11-03T02:25:15.965Z,1007.9
2022-11-03T02:26:32.268Z,1007.9
2022-11-03T02:27:48.550Z,1007.9
2022-11-03T02:29:04.850Z,1007.9
2022-11-03T02:30:21.155Z,1007.9
2022-11-03T02:31:37.443Z,1007.9
2022-11-03T02:32:52.756Z,1007.8
2022-11-03T02:34:08.057Z,1007.9
2022-11-03T02:35:24.355Z,1007.9
2022-11-03T02:36:40.656Z,1007.8
2022-11-03T02:37:56.943Z,1007.8
2022-11-03T02:39:13.231Z,1007.8
2022-11-03T02:40:29.531Z,1007.8
2022-11-03T02:41:45.819Z,1007.9
2022-11-03T02:43:02.115Z,1007.8
2022-11-03T02:44:18.413Z,1007.7
2022-11-03T02:45:34.711Z,1007.7
2022-11-03T02:46:51.013Z,1007.8
2022-11-03T02:48:07.293Z,1007.7
2022-11-03T02:49:23.594Z,1007.7
2022-11-03T02:50:38.902Z,1007.7
2022-11-03T02:51:55.195Z,1007.7
2022-11-03T02:53:11.493Z,1007.6
2022-11-03T02:54:27.779Z,1007.6
2022-11-03T02:55:44.074Z,1007.6
2022-11-03T02:57:00.360Z,1007.6
2022-11-03T02:58:16.671Z,1007.6
2022-11-03T02:59:31.980Z,1007.6
2022-11-03T03:04:36.161Z,1007.4
2022-11-03T03:05:51.488Z,1007.5
2022-11-03T03:21:06.010Z,1007.2
2022-11-03T03:22:22.315Z,1007.2
2022-11-03T03:23:37.615Z,1007.2
2022-11-03T03:24:53.909Z,1007.2
2022-11-03T03:26:10.208Z,1007.2
2022-11-03T03:27:26.506Z,1007.2
2022-11-03T03:28:42.790Z,1007.2
2022-11-03T03:29:59.092Z,1007.2
2022-11-03T03:31:15.382Z,1007.2
2022-11-03T03:32:31.684Z,1007.1
2022-11-03T03:35:04.284Z,1007.1
2022-11-03T03:43:58.317Z,1007
2022-11-03T03:45:13.639Z,1007
2022-11-03T03:46:28.951Z,1006.9
2022-11-03T03:47:45.243Z,1006.9
2022-11-03T03:49:01.537Z,1006.9
2022-11-03T03:50:17.830Z,1006.9
2022-11-03T03:51:34.119Z,1006.9
2022-11-03T03:52:50.428Z,1006.9
2022-11-03T03:54:06.710Z,1006.9
2022-11-03T03:59:11.888Z,1006.9
2022-11-03T04:00:28.200Z,1006.9
2022-11-03T04:01:44.476Z,1006.8
2022-11-03T04:02:59.801Z,1006.8
2022-11-03T04:04:16.069Z,1006.8
2022-11-03T04:05:32.374Z,1006.8
2022-11-03T04:06:48.676Z,1006.7
2022-11-03T04:08:04.972Z,1006.7
2022-11-03T04:09:21.245Z,1006.7
2022-11-03T04:10:37.563Z,1006.7
2022-11-03T04:11:53.840Z,1006.6
2022-11-03T04:13:10.138Z,1006.7
2022-11-03T06:12:59.510Z,1006
2022-11-03T06:15:58.773Z,1006
2022-11-03T06:17:14.031Z,1006
2022-11-03T06:18:30.266Z,1005.9
2022-11-03T06:19:46.517Z,1005.9
2022-11-03T06:21:02.748Z,1005.9
2022-11-03T06:22:18.983Z,1006
2022-11-03T06:23:35.224Z,1006
2022-11-03T06:24:51.458Z,1006
2022-11-03T06:26:07.703Z,1006
2022-11-03T06:27:23.941Z,1006
2022-11-03T06:28:40.181Z,1006
2022-11-03T06:29:55.444Z,1005.9
2022-11-03T06:31:10.694Z,1005.9
2022-11-03T06:32:26.940Z,1005.9
2022-11-03T06:33:43.179Z,1005.9
2022-11-03T06:34:59.414Z,1005.9
2022-11-03T06:36:15.661Z,1005.9
2022-11-03T06:37:31.905Z,1005.9
2022-11-03T06:38:48.132Z,1005.9
2022-11-03T06:40:04.379Z,1005.9
2022-11-03T06:41:20.625Z,1005.9
2022-11-03T06:42:36.864Z,1005.9
2022-11-03T06:43:52.124Z,1005.9
2022-11-03T06:45:07.382Z,1005.9
2022-11-03T06:46:23.619Z,1005.9
2022-11-03T06:47:39.852Z,1005.9
2022-11-03T06:48:56.104Z,1005.9
2022-11-03T06:50:12.328Z,1005.9
2022-11-03T06:51:28.583Z,1006
2022-11-03T06:52:44.823Z,1005.9
2022-11-03T06:54:01.060Z,1005.8
2022-11-03T06:55:17.304Z,1005.9
2022-11-03T06:56:33.541Z,1005.9
2022-11-03T06:57:49.768Z,1005.9
2022-11-03T06:59:06.021Z,1005.9
2022-11-03T07:00:22.254Z,1005.8
2022-11-03T07:01:37.521Z,1005.8
2022-11-03T07:02:53.758Z,1005.8
2022-11-03T07:04:09.982Z,1005.7
2022-11-03T07:05:26.224Z,1005.7
2022-11-03T07:06:42.473Z,1005.6
2022-11-03T07:07:58.705Z,1005.6
2022-11-03T07:09:14.953Z,1005.6
2022-11-03T07:10:30.220Z,1005.6
2022-11-03T07:11:45.469Z,1005.6
2022-11-03T07:13:01.714Z,1005.6
2022-11-03T07:14:17.945Z,1005.6
2022-11-03T07:15:34.195Z,1005.6
2022-11-03T07:16:50.418Z,1005.6
2022-11-03T07:18:06.657Z,1005.6
2022-11-03T07:19:22.911Z,1005.6
2022-11-03T07:20:39.148Z,1005.6
2022-11-03T07:21:55.386Z,1005.6
2022-11-03T07:23:11.622Z,1005.5
2022-11-03T07:24:27.872Z,1005.6
2022-11-03T07:25:44.108Z,1005.6
2022-11-03T07:27:00.351Z,1005.5
2022-11-03T07:33:20.560Z,1005.5
2022-11-03T08:11:27.096Z,1005.1
2022-11-03T08:12:43.387Z,1005
2022-11-03T08:13:58.744Z,1005
2022-11-03T08:15:14.047Z,1005
2022-11-03T08:16:29.302Z,1005
2022-11-03T08:17:45.539Z,1004.9
2022-11-03T08:19:01.775Z,1004.9
2022-11-03T08:20:18.014Z,1004.9
2022-11-03T08:21:34.264Z,1004.8
2022-11-03T08:22:50.510Z,1004.8
2022-11-03T08:24:06.741Z,1004.8
2022-11-03T08:25:22.977Z,1004.7
2022-11-03T08:26:39.217Z,1004.7
2022-11-03T08:27:55.454Z,1004.7
2022-11-03T08:29:11.699Z,1004.7
2022-11-03T08:30:27.952Z,1004.7
2022-11-03T08:31:44.192Z,1004.6
2022-11-03T08:32:59.435Z,1004.6
2022-11-03T08:34:15.679Z,1004.6
2022-11-03T08:35:31.913Z,1004.5
2022-11-03T08:36:48.150Z,1004.5
2022-11-03T08:38:04.398Z,1004.5
2022-11-03T08:39:20.630Z,1004.5
2022-11-03T08:40:36.883Z,1004.5
2022-11-03T08:41:52.140Z,1004.5
2022-11-03T08:43:07.385Z,1004.5
2022-11-03T08:44:23.644Z,1004.5
2022-11-03T12:25:22.792Z,1000.5
2022-11-03T12:32:10.783Z,1000.3
2022-11-03T12:33:26.054Z,1000.3
2022-11-03T12:34:42.283Z,1000.3
2022-11-03T12:38:30.793Z,1000.2
2022-11-03T12:44:52.207Z,1000
2022-11-03T12:46:08.440Z,1000
2022-11-03T12:47:24.677Z,999.9
2022-11-03T12:48:40.915Z,999.8
2022-11-03T12:49:57.275Z,999.7
2022-11-03T12:51:13.528Z,999.7
2022-11-03T12:52:28.782Z,999.6
2022-11-03T12:53:44.047Z,999.7
2022-11-03T12:55:00.270Z,999.6
2022-11-03T12:56:16.524Z,999.6
2022-11-03T12:57:32.751Z,999.5
2022-11-03T12:58:49.008Z,999.5
2022-11-03T13:00:05.232Z,999.4
2022-11-03T13:01:21.488Z,999.4
2022-11-03T13:06:26.452Z,999.3
2022-11-03T13:08:58.928Z,999.3
2022-11-03T13:10:14.184Z,999.3
2022-11-03T13:11:30.437Z,999.3
2022-11-03T13:12:46.673Z,999.2
2022-11-03T13:25:29.068Z,999.1
2022-11-03T13:26:44.338Z,999.1
2022-11-03T13:28:00.577Z,999
2022-11-03T13:29:16.820Z,999
2022-11-03T13:34:21.772Z,999
2022-11-03T13:35:38.005Z,999
2022-11-03T13:36:54.238Z,999
2022-11-03T13:38:10.470Z,999
2022-11-03T13:39:26.868Z,999
2022-11-03T13:40:43.216Z,998.9
2022-11-03T13:41:59.602Z,998.9
2022-11-03T13:43:15.970Z,998.8
2022-11-03T13:44:32.198Z,998.8
2022-11-03T13:45:48.452Z,998.8
2022-11-03T13:47:04.691Z,998.7
2022-11-03T13:48:20.929Z,998.8
2022-11-03T13:49:37.166Z,998.6
2022-11-03T13:50:53.402Z,998.7
2022-11-03T13:52:09.636Z,998.6
2022-11-03T13:53:25.877Z,998.6
2022-11-03T13:54:42.116Z,998.6
2022-11-03T13:55:57.377Z,998.6
2022-11-03T13:57:12.640Z,998.6
2022-11-03T13:58:28.863Z,998.6
2022-11-03T13:59:45.115Z,998.5
2022-11-03T14:01:01.350Z,998.5
2022-11-03T14:02:17.583Z,998.5
2022-11-03T14:03:33.838Z,998.5
2022-11-03T14:04:50.077Z,998.5
2022-11-03T14:06:06.319Z,998.4
2022-11-03T14:07:22.554Z,998.4
2022-11-03T14:08:38.787Z,998.4
2022-11-03T14:09:54.041Z,998.3
2022-11-03T14:11:09.314Z,998.3
2022-11-03T14:12:25.551Z,998.3
2022-11-03T14:13:41.780Z,998.3
2022-11-03T14:14:58.014Z,998.2
2022-11-03T14:16:14.251Z,998.2
2022-11-03T14:17:30.509Z,998.1
2022-11-03T14:18:46.740Z,998
2022-11-03T14:20:02.969Z,998
2022-11-03T14:21:19.223Z,998
2022-11-03T14:22:35.450Z,998
2022-11-03T14:23:51.699Z,998
2022-11-03T14:25:07.925Z,998
2022-11-03T14:26:24.179Z,998
2022-11-03T14:27:39.427Z,998
2022-11-03T14:28:55.656Z,998
2022-11-03T14:30:11.899Z,998
2022-11-03T14:31:28.155Z,998
2022-11-03T14:32:44.379Z,998
2022-11-03T14:34:00.624Z,998
2022-11-03T14:35:16.861Z,998
2022-11-03T14:36:32.122Z,997.9
2022-11-03T14:37:48.476Z,997.9
2022-11-03T14:39:04.713Z,997.9
2022-11-03T14:40:19.979Z,997.8
2022-11-03T14:41:35.239Z,997.8
2022-11-03T14:42:51.468Z,997.8
2022-11-03T14:47:56.435Z,997.7
2022-11-03T14:49:12.683Z,997.6
2022-11-03T14:50:28.918Z,997.6
2022-11-03T14:51:45.151Z,997.6
2022-11-03T14:53:01.406Z,997.6
2022-11-03T14:54:17.640Z,997.5
2022-11-03T14:55:33.868Z,997.5
2022-11-03T14:56:50.105Z,997.4
2022-11-03T14:58:05.368Z,997.4
2022-11-03T14:59:20.627Z,997.3
2022-11-03T15:00:36.878Z,997.3
2022-11-03T15:01:53.119Z,997.3
2022-11-03T15:03:09.338Z,997.2
2022-11-03T15:04:25.575Z,997.3
2022-11-03T15:05:41.832Z,997.2
2022-11-03T15:06:58.061Z,997.2
2022-11-03T15:08:14.308Z,997.2
2022-11-03T15:09:30.549Z,997.2
2022-11-03T15:10:46.773Z,997.2
2022-11-03T15:12:03.155Z,997.2
2022-11-03T15:13:19.522Z,997.1
2022-11-03T15:14:35.753Z,997.2
2022-11-03T15:15:51.990Z,997.1
2022-11-03T15:17:08.234Z,997
2022-11-03T15:18:24.482Z,997
2022-11-03T15:19:40.705Z,997
2022-11-03T15:20:56.949Z,997
2022-11-03T15:22:13.185Z,997
2022-11-03T15:23:29.430Z,997
2022-11-03T15:24:45.662Z,996.9
2022-11-03T15:26:01.899Z,996.9
2022-11-03T15:27:18.152Z,997
2022-11-03T15:28:34.388Z,997
2022-11-03T15:29:50.751Z,997
2022-11-03T15:31:06.985Z,997
2022-11-03T15:32:23.228Z,997
2022-11-03T15:33:39.461Z,997
2022-11-03T15:34:55.696Z,997
2022-11-03T15:36:11.951Z,997
2022-11-03T15:37:28.174Z,997
2022-11-03T15:38:43.439Z,996.9
2022-11-03T15:39:59.679Z,997
2022-11-03T15:41:14.940Z,996.9
2022-11-03T15:42:31.306Z,997
2022-11-03T15:43:47.528Z,997
2022-11-03T15:45:03.783Z,997
2022-11-03T15:46:20.011Z,997
2022-11-03T15:47:36.254Z,996.9
2022-11-03T15:48:52.494Z,996.9
2022-11-03T15:50:08.732Z,996.8
2022-11-03T15:51:24.974Z,996.8
2022-11-03T15:52:41.195Z,996.7
2022-11-03T15:53:57.452Z,996.7
2022-11-03T15:55:13.734Z,996.7
2022-11-03T15:56:29.971Z,996.7
2022-11-03T15:57:46.223Z,996.7
2022-11-03T15:59:01.469Z,996.6
2022-11-03T16:00:17.707Z,996.6
2022-11-03T16:01:33.995Z,996.6
2022-11-03T16:02:50.245Z,996.7
2022-11-03T16:04:06.475Z,996.6
2022-11-03T16:05:22.725Z,996.6
2022-11-03T16:06:39.010Z,996.6
2022-11-03T16:07:54.289Z,996.6
2022-11-03T16:09:09.533Z,996.5
2022-11-03T16:10:25.837Z,996.5
2022-11-03T16:11:42.113Z,996.5
2022-11-03T16:14:13.733Z,996.4
2022-11-03T16:15:30.169Z,996.4
2022-11-03T16:16:45.476Z,996.4
2022-11-03T16:18:01.759Z,996.3
2022-11-03T16:19:18.057Z,996.3
2022-11-03T16:20:34.350Z,996.3
2022-11-03T16:21:50.641Z,996.3
2022-11-03T16:23:06.942Z,996.2
2022-11-03T16:24:23.225Z,996.2
2022-11-03T16:25:39.515Z,996.1
2022-11-03T16:26:55.806Z,996.1
2022-11-03T16:28:12.111Z,996.1
2022-11-03T16:29:28.404Z,996
2022-11-03T16:30:44.693Z,996
2022-11-03T16:32:00.993Z,996
2022-11-03T16:33:16.302Z,996
2022-11-03T16:34:32.579Z,995.9
2022-11-03T16:35:48.871Z,995.9
2022-11-03T16:37:05.166Z,995.8
2022-11-03T16:38:21.460Z,995.8
2022-11-03T16:39:37.766Z,995.8
2022-11-03T16:42:10.351Z,995.8
2022-11-03T16:43:26.786Z,995.7
2022-11-03T16:44:42.093Z,995.8
2022-11-03T16:45:57.403Z,995.8
2022-11-03T16:47:12.706Z,995.7
2022-11-03T16:48:28.028Z,995.7
2022-11-03T16:49:44.321Z,995.7
2022-11-03T16:51:00.601Z,995.6
2022-11-03T16:52:16.895Z,995.6
2022-11-03T16:53:33.213Z,995.5
2022-11-03T16:54:49.482Z,995.5
2022-11-03T16:56:05.783Z,995.5
2022-11-03T16:57:22.066Z,995.6
2022-11-03T16:58:38.380Z,995.5
2022-11-03T16:59:54.666Z,995.5
2022-11-03T17:01:10.956Z,995.5
2022-11-03T17:02:27.248Z,995.5
2022-11-03T17:03:43.556Z,995.4
2022-11-03T17:04:58.860Z,995.4
2022-11-03T17:06:15.142Z,995.3
2022-11-03T17:07:31.432Z,995.3
2022-11-03T17:08:47.729Z,995.3
2022-11-03T17:10:04.028Z,995.3
2022-11-03T17:11:20.312Z,995.3
2022-11-03T17:12:35.622Z,995.3
2022-11-03T17:13:50.954Z,995.2
2022-11-03T17:15:07.237Z,995.2
2022-11-03T17:16:22.549Z,995.2
2022-11-03T17:17:37.848Z,995.1
2022-11-03T17:18:54.147Z,995.2
2022-11-03T17:20:10.451Z,995.2
2022-11-03T17:21:26.743Z,995.2
2022-11-03T17:22:43.028Z,995.1
2022-11-03T17:23:59.316Z,995.1
2022-11-03T17:25:15.613Z,995.1
2022-11-03T17:26:31.906Z,995.1
2022-11-03T17:27:48.196Z,995
2022-11-03T17:29:04.508Z,995
2022-11-03T17:30:20.770Z,995
2022-11-03T17:31:37.078Z,994.9
2022-11-03T17:32:53.356Z,994.9
2022-11-03T17:34:08.675Z,994.9
2022-11-03T17:35:24.964Z,994.9
2022-11-03T17:36:41.260Z,994.9
2022-11-03T17:37:57.557Z,994.8
2022-11-03T17:39:13.852Z,994.8
2022-11-03T17:40:30.140Z,994.8
2022-11-03T17:41:46.436Z,994.8
2022-11-03T17:43:01.765Z,994.8
2022-11-03T17:44:17.068Z,994.8
2022-11-03T17:45:32.372Z,994.8
2022-11-03T17:46:47.691Z,994.8
2022-11-03T17:48:03.990Z,994.8
2022-11-03T17:49:20.267Z,994.8
2022-11-03T17:50:36.571Z,994.8
2022-11-03T17:51:52.869Z,994.8
2022-11-03T17:53:09.163Z,994.8
2022-11-03T17:54:25.453Z,994.7
2022-11-03T17:55:41.734Z,994.6
2022-11-03T17:56:58.030Z,994.6
2022-11-03T17:58:14.322Z,994.6
2022-11-03T17:59:30.612Z,994.6
2022-11-03T18:00:46.902Z,994.5
2022-11-03T18:02:03.195Z,994.5
2022-11-03T18:03:18.509Z,994.6
2022-11-03T18:04:34.814Z,994.6
2022-11-03T18:05:51.094Z,994.6
2022-11-03T18:07:07.384Z,994.5
2022-11-03T18:08:23.692Z,994.5
2022-11-03T18:09:39.977Z,994.5
2022-11-03T18:10:56.278Z,994.4
2022-11-03T18:12:11.576Z,994.4
2022-11-03T18:13:26.900Z,994.3
2022-11-03T18:14:42.206Z,994.4
2022-11-03T18:15:57.521Z,994.4
2022-11-03T18:17:12.840Z,994.4
2022-11-03T18:18:28.164Z,994.5
2022-11-03T18:19:44.447Z,994.4
2022-11-03T18:22:17.013Z,994.4
2022-11-03T18:23:33.312Z,994.3
2022-11-03T18:24:49.613Z,994.3
2022-11-03T18:26:05.906Z,994.2
2022-11-03T18:27:22.197Z,994.2
2022-11-03T18:28:38.490Z,994.1
2022-11-03T18:29:54.788Z,994.2
2022-11-03T18:31:11.065Z,994.2
2022-11-03T18:32:27.358Z,994.2
2022-11-03T18:33:43.653Z,994.2
2022-11-03T18:34:58.971Z,994.2
2022-11-03T18:36:15.260Z,994.2
2022-11-03T18:37:31.554Z,994.2
2022-11-03T18:38:47.849Z,994.1
2022-11-03T18:40:04.132Z,994.1
2022-11-03T18:41:20.435Z,994
2022-11-03T18:42:36.722Z,994
2022-11-03T18:43:53.027Z,994
2022-11-03T18:45:08.327Z,993.9
2022-11-03T18:46:23.648Z,993.9
2022-11-03T18:47:39.930Z,993.9
2022-11-03T18:48:56.236Z,993.8
2022-11-03T18:50:12.523Z,993.8
2022-11-03T18:51:28.822Z,993.8
2022-11-03T18:52:45.107Z,993.9
2022-11-03T18:54:01.415Z,993.9
2022-11-03T18:55:17.700Z,993.9
2022-11-03T18:56:33.995Z,993.8
2022-11-03T18:57:50.287Z,993.8
2022-11-03T18:59:06.572Z,993.9
2022-11-03T19:00:22.866Z,993.8
2022-11-03T19:01:39.162Z,993.8
2022-11-03T19:02:54.476Z,993.8
2022-11-03T19:04:10.764Z,993.8
2022-11-03T19:05:27.060Z,993.8
2022-11-03T19:06:43.355Z,993.7
2022-11-03T19:07:59.648Z,993.7
2022-11-03T19:09:15.936Z,993.7
2022-11-03T19:10:32.238Z,993.6
2022-11-03T19:11:47.551Z,993.6
2022-11-03T19:13:02.855Z,993.5
2022-11-03T19:14:18.177Z,993.5
2022-11-03T19:15:33.494Z,993.5
2022-11-03T19:16:48.795Z,993.4
2022-11-03T19:18:04.110Z,993.4
2022-11-03T19:19:19.000Z,993.4
2022-11-03T19:20:34.738Z,993.3
2022-11-03T19:21:51.029Z,993.4
2022-11-03T19:23:07.318Z,993.4
2022-11-03T19:24:23.608Z,993.3
2022-11-03T19:25:39.902Z,993.3
2022-11-03T19:26:56.208Z,993.3
2022-11-03T19:28:12.495Z,993.3
2022-11-03T19:29:28.782Z,993.3
2022-11-03T19:30:45.080Z,993.2
2022-11-03T19:32:01.368Z,993.2
2022-11-03T19:33:17.674Z,993.2
2022-11-03T19:34:33.958Z,993.2
2022-11-03T19:35:50.256Z,993.2
2022-11-03T19:37:05.574Z,993.1
2022-11-03T19:38:21.853Z,993.1
2022-11-03T19:39:38.160Z,993.1
2022-11-03T19:40:54.445Z,993
2022-11-03T19:42:10.749Z,993
2022-11-03T19:43:27.043Z,993
2022-11-03T19:44:43.330Z,992.9
2022-11-03T19:45:58.648Z,993
2022-11-03T19:47:13.952Z,993
2022-11-03T19:48:30.243Z,993
2022-11-03T19:49:46.536Z,993
2022-11-03T19:51:02.822Z,992.9
2022-11-03T19:52:19.129Z,992.9
2022-11-03T19:53:35.422Z,992.8
2022-11-03T19:54:51.714Z,992.9
2022-11-03T19:56:08.002Z,992.8
2022-11-03T19:57:24.292Z,992.9
2022-11-03T19:58:40.589Z,992.9
2022-11-03T19:59:56.879Z,992.8
2022-11-03T20:01:13.174Z,992.9
2022-11-03T20:02:29.480Z,992.8
2022-11-03T20:03:44.777Z,992.9
2022-11-03T20:05:01.080Z,992.8
2022-11-03T20:06:17.368Z,992.9
2022-11-03T20:07:33.659Z,992.8
2022-11-03T20:08:49.953Z,992.8
2022-11-03T20:10:06.254Z,992.9
2022-11-03T20:11:22.537Z,992.9
2022-11-03T20:12:37.861Z,992.8
2022-11-03T20:13:53.162Z,992.8
2022-11-03T20:15:08.477Z,992.8
2022-11-03T20:16:23.798Z,992.8
2022-11-03T20:17:40.087Z,992.8
2022-11-03T20:18:56.374Z,992.8
2022-11-03T20:20:12.673Z,992.8
2022-11-03T20:21:28.961Z,992.8
2022-11-03T20:22:45.000Z,992.8
2022-11-03T20:24:01.548Z,992.8
2022-11-03T20:25:17.847Z,992.8
2022-11-03T20:26:34.136Z,992.8
2022-11-03T20:27:50.428Z,992.7
2022-11-03T20:29:06.727Z,992.7
2022-11-03T20:30:23.012Z,992.7
2022-11-03T20:31:39.324Z,992.7
2022-11-03T20:32:54.618Z,992.6
2022-11-03T20:34:10.920Z,992.6
2022-11-03T20:35:27.214Z,992.6
2022-11-03T20:36:43.504Z,992.6
2022-11-03T20:37:59.797Z,992.5
2022-11-03T20:39:16.090Z,992.5
2022-11-03T20:40:32.394Z,992.4
2022-11-03T20:41:47.701Z,992.4
2022-11-03T20:43:03.009Z,992.4
2022-11-03T20:44:18.319Z,992.4
2022-11-03T20:45:33.631Z,992.4
2022-11-03T20:46:49.922Z,992.4
2022-11-03T20:48:06.222Z,992.4
2022-11-03T20:49:22.514Z,992.4
2022-11-03T20:50:38.806Z,992.4
2022-11-03T20:51:55.098Z,992.4
2022-11-03T20:53:11.406Z,992.4
2022-11-03T20:54:27.700Z,992.4
2022-11-03T20:55:43.997Z,992.4
2022-11-03T20:57:00.290Z,992.5
2022-11-03T20:58:16.571Z,992.5
2022-11-03T20:59:32.879Z,992.5
2022-11-03T21:00:49.172Z,992.4
2022-11-03T21:02:04.475Z,992.4
2022-11-03T21:03:19.801Z,992.3
2022-11-03T21:04:36.081Z,992.3
2022-11-03T21:05:52.383Z,992.3
2022-11-03T21:07:08.676Z,992.3
2022-11-03T21:08:24.969Z,992.3
2022-11-03T21:09:41.254Z,992.2
2022-11-03T21:10:56.589Z,992.2
2022-11-03T21:12:11.896Z,992.2
2022-11-03T21:13:28.184Z,992.2
2022-11-03T21:14:44.480Z,992.2
2022-11-03T21:16:00.760Z,992.2
2022-11-03T21:17:17.069Z,992.1
2022-11-03T21:18:33.351Z,992.1
2022-11-03T21:19:49.651Z,992.2
2022-11-03T21:21:05.958Z,992.2
2022-11-03T21:22:22.244Z,992.2
2022-11-03T21:23:38.546Z,992.2
2022-11-03T21:24:54.823Z,992.2
2022-11-03T21:26:11.130Z,992.1
2022-11-03T21:27:27.411Z,992.1
2022-11-03T21:28:42.726Z,992.1
2022-11-03T21:29:59.020Z,992.1
2022-11-03T21:31:15.307Z,992.1
2022-11-03T21:32:31.606Z,992
2022-11-03T21:33:47.914Z,992
2022-11-03T21:35:04.212Z,992
2022-11-03T21:36:20.486Z,991.9
2022-11-03T21:37:35.808Z,991.9
2022-11-03T21:38:51.123Z,992
2022-11-03T21:40:06.441Z,992
2022-11-03T21:41:21.735Z,992
2022-11-03T21:42:37.052Z,992
2022-11-03T21:43:52.374Z,992.1
2022-11-03T21:45:08.674Z,992.1
2022-11-03T21:46:24.954Z,992.1
2022-11-03T21:47:41.258Z,992.2
2022-11-03T21:48:57.545Z,992.1
2022-11-03T21:50:13.835Z,992.2
2022-11-03T21:51:30.131Z,992.2
2022-11-03T21:52:46.427Z,992.2
2022-11-03T21:54:02.723Z,992.2
2022-11-03T21:55:19.015Z,992.2
2022-11-03T21:56:35.305Z,992.2
2022-11-03T21:57:51.599Z,992.1
2022-11-03T21:59:07.916Z,992.3
2022-11-03T22:00:23.204Z,992.2
2022-11-03T22:01:39.502Z,992.3
2022-11-03T22:02:55.800Z,992.3
2022-11-03T22:04:12.107Z,992.3
2022-11-03T22:05:28.382Z,992.4
2022-11-03T22:06:44.689Z,992.3
2022-11-03T22:08:00.982Z,992.3
2022-11-03T22:09:16.289Z,992.3
2022-11-03T22:10:31.606Z,992.3
2022-11-03T22:11:47.888Z,992.3
2022-11-03T22:13:04.193Z,992.3
2022-11-03T22:14:20.480Z,992.3
2022-11-03T22:15:36.784Z,992.3
2022-11-03T22:16:53.085Z,992.3
2022-11-03T22:18:09.376Z,992.2
2022-11-03T22:19:25.654Z,992.2
2022-11-03T22:20:41.955Z,992.1
2022-11-03T22:21:58.251Z,992.1
2022-11-03T22:23:14.548Z,992.2
2022-11-03T22:24:30.838Z,992.1
2022-11-03T22:25:47.132Z,992
2022-11-03T22:27:02.439Z,992
2022-11-03T22:28:18.741Z,992
2022-11-03T22:29:35.039Z,992
2022-11-03T22:30:51.328Z,991.9
2022-11-03T22:32:07.633Z,991.9
2022-11-03T22:33:23.910Z,991.9
2022-11-03T22:34:40.214Z,991.9
2022-11-03T22:35:55.518Z,991.9
2022-11-03T22:37:10.830Z,991.9
2022-11-03T22:38:26.148Z,991.9
2022-11-03T22:39:41.466Z,991.8
2022-11-03T22:40:57.766Z,991.9
2022-11-03T22:42:14.048Z,991.9
2022-11-03T22:43:30.347Z,991.9
2022-11-03T22:44:46.000Z,991.8
2022-11-03T22:46:02.927Z,991.8
2022-11-03T22:47:19.238Z,991.8
2022-11-03T22:48:35.531Z,991.8
2022-11-03T22:49:51.827Z,991.8
2022-11-03T22:51:08.115Z,991.8
2022-11-03T22:52:24.401Z,991.7
2022-11-03T22:53:40.694Z,991.7
2022-11-03T22:54:57.002Z,991.6
2022-11-03T22:56:12.307Z,991.6
2022-11-03T22:57:28.595Z,991.6
2022-11-03T22:58:44.903Z,991.6
2022-11-03T23:00:01.176Z,991.6
2022-11-03T23:01:17.469Z,991.6
2022-11-03T23:02:33.764Z,991.6
2022-11-03T23:03:50.065Z,991.5
2022-11-03T23:05:05.381Z,991.5
